Time;durP1;ratioP1;P1;durP2;ratioP2;P2;SDS_P1;SDS_P2;PMS_P1;PMS_P2;Temp;Humidity;BMP_temperature;BMP_pressure;BME280_temperature;BME280_humidity;BME280_pressure;Samples;Min_cycle;Max_cycle;Signal;HPM_P1;HPM_P2
2022/07/24 00:01:00;;;;;;;12.52;8.43;;;18.30;99.90;;;;;;5060717;28;20046;-63
2022/07/24 00:03:27;;;;;;;12.15;8.45;;;18.30;99.90;;;;;;5066077;28;20326;-63
2022/07/24 00:05:55;;;;;;;10.63;7.90;;;18.30;99.90;;;;;;5019142;28;20096;-63
2022/07/24 00:08:22;;;;;;;13.98;8.60;;;18.30;99.90;;;;;;5058458;28;20040;-63
2022/07/24 00:10:49;;;;;;;11.65;8.00;;;18.40;99.90;;;;;;5062623;28;20044;-63
2022/07/24 00:13:16;;;;;;;12.27;8.30;;;18.30;99.90;;;;;;5064352;28;20045;-63
2022/07/24 00:15:42;;;;;;;14.48;8.75;;;18.30;99.90;;;;;;5063172;28;20531;-63
2022/07/24 00:18:09;;;;;;;15.38;9.20;;;18.20;99.90;;;;;;5062936;28;20062;-62
2022/07/24 00:20:36;;;;;;;14.32;7.93;;;18.20;99.90;;;;;;5060038;28;20040;-62
2022/07/24 00:23:03;;;;;;;;;;;18.20;99.90;;;;;;5066741;28;20047;-63
2022/07/24 00:25:30;;;;;;;12.75;8.23;;;18.20;99.90;;;;;;5054829;28;19928;-62
2022/07/24 00:27:57;;;;;;;12.60;8.27;;;18.20;99.90;;;;;;5067383;28;20052;-63
2022/07/24 00:30:24;;;;;;;12.35;7.78;;;18.20;99.90;;;;;;5059394;28;20052;-63
2022/07/24 00:32:51;;;;;;;13.52;8.40;;;18.20;99.90;;;;;;5069950;28;20511;-63
2022/07/24 00:35:17;;;;;;;13.48;8.95;;;18.20;99.90;;;;;;5062265;28;20512;-64
2022/07/24 00:37:46;;;;;;;12.48;9.38;;;18.20;99.90;;;;;;5045580;28;20065;-63
2022/07/24 00:40:15;;;;;;;17.42;9.20;;;18.20;99.90;;;;;;5046296;28;20041;-63
2022/07/24 00:42:43;;;;;;;15.90;10.38;;;18.30;99.90;;;;;;5051600;28;20393;-64
2022/07/24 00:45:10;;;;;;;15.57;9.55;;;18.30;99.90;;;;;;5061997;28;20048;-64
2022/07/24 00:47:52;;;;;;;10.63;8.55;;;18.20;99.90;;;;;;5062601;28;20050;-63
2022/07/24 00:50:24;;;;;;;11.82;8.48;;;18.20;99.90;;;;;;5061570;28;20041;-64
2022/07/24 00:52:52;;;;;;;12.27;8.32;;;18.20;99.90;;;;;;5067394;28;20048;-64
2022/07/24 00:55:20;;;;;;;11.98;8.30;;;18.10;99.90;;;;;;5053854;28;20055;-64
2022/07/24 00:57:48;;;;;;;13.52;8.90;;;18.00;99.90;;;;;;5061601;28;20061;-64
2022/07/24 01:00:17;;;;;;;14.32;9.15;;;18.00;99.90;;;;;;5064346;28;20052;-64
2022/07/24 01:02:44;;;;;;;14.00;8.57;;;18.00;99.90;;;;;;5057577;28;20041;-64
2022/07/24 01:05:12;;;;;;;12.90;8.60;;;18.00;99.90;;;;;;5066021;28;20049;-64
2022/07/24 01:07:39;;;;;;;13.35;9.18;;;18.00;99.90;;;;;;5059006;28;20049;-64
2022/07/24 01:10:07;;;;;;;12.43;9.02;;;18.10;99.90;;;;;;5062539;28;20044;-64
2022/07/24 01:12:36;;;;;;;12.38;8.25;;;18.10;99.90;;;;;;5059012;28;20037;-64
2022/07/24 01:15:05;;;;;;;13.25;8.98;;;18.10;99.90;;;;;;5059145;28;20045;-63
2022/07/24 01:17:35;;;;;;;14.00;8.80;;;18.10;99.90;;;;;;5047629;28;20055;-63
2022/07/24 01:20:04;;;;;;;10.77;8.35;;;18.00;99.90;;;;;;5058875;28;20040;-63
2022/07/24 01:22:31;;;;;;;12.23;9.10;;;18.00;99.90;;;;;;5066190;28;20048;-64
2022/07/24 01:24:58;;;;;;;11.32;8.60;;;17.90;99.90;;;;;;5071522;28;20382;-63
2022/07/24 01:27:25;;;;;;;14.52;8.57;;;17.90;99.90;;;;;;5071275;28;20040;-63
2022/07/24 01:29:52;;;;;;;11.15;8.07;;;17.90;99.90;;;;;;5068381;28;20051;-63
2022/07/24 01:32:18;;;;;;;;;;;17.90;99.90;;;;;;5059822;28;20490;-63
2022/07/24 01:34:45;;;;;;;12.93;8.70;;;17.90;99.90;;;;;;5068297;28;19928;-64
2022/07/24 01:37:12;;;;;;;13.55;8.98;;;18.00;99.90;;;;;;5071216;28;20045;-64
2022/07/24 01:39:39;;;;;;;12.38;8.93;;;18.00;99.90;;;;;;5068086;28;20048;-64
2022/07/24 01:42:06;;;;;;;13.90;9.20;;;18.10;99.90;;;;;;5054631;28;20044;-64
2022/07/24 01:44:33;;;;;;;13.90;9.20;;;18.10;99.90;;;;;;5071226;28;20413;-64
2022/07/24 01:47:00;;;;;;;15.70;8.77;;;18.20;99.90;;;;;;5071084;28;20052;-64
2022/07/24 01:49:26;;;;;;;16.33;9.52;;;18.00;99.90;;;;;;5067680;28;20063;-64
2022/07/24 01:51:53;;;;;;;15.77;8.65;;;17.90;99.90;;;;;;5062096;28;20098;-63
2022/07/24 01:54:20;;;;;;;13.73;9.05;;;17.80;99.90;;;;;;5071012;28;20053;-63
2022/07/24 01:56:46;;;;;;;15.60;10.25;;;17.70;99.90;;;;;;5065681;28;20056;-64
2022/07/24 01:59:14;;;;;;;16.63;9.63;;;17.70;99.90;;;;;;5062638;28;20067;-63
2022/07/24 02:01:40;;;;;;;14.13;8.98;;;17.60;99.90;;;;;;5069554;28;20052;-64
2022/07/24 02:04:07;;;;;;;12.57;9.32;;;17.60;99.90;;;;;;5065903;28;20557;-64
2022/07/24 02:06:34;;;;;;;15.68;9.43;;;17.60;99.90;;;;;;5059080;28;20049;-64
2022/07/24 02:09:01;;;;;;;12.13;8.98;;;17.60;99.90;;;;;;5070423;28;20053;-64
2022/07/24 02:11:28;;;;;;;13.40;8.85;;;17.60;99.90;;;;;;5070247;28;20129;-64
2022/07/24 02:13:56;;;;;;;11.73;9.48;;;17.60;99.90;;;;;;5060112;28;20048;-64
2022/07/24 02:16:23;;;;;;;12.23;9.60;;;17.60;99.90;;;;;;5064983;28;20051;-64
2022/07/24 02:18:50;;;;;;;14.20;9.18;;;17.60;99.90;;;;;;5070684;28;20453;-64
2022/07/24 02:21:17;;;;;;;15.02;9.73;;;17.60;99.90;;;;;;5070308;28;20059;-64
2022/07/24 02:23:44;;;;;;;12.60;9.05;;;17.60;99.90;;;;;;5059386;28;20041;-64
2022/07/24 02:26:11;;;;;;;13.55;8.52;;;17.60;99.90;;;;;;5071008;28;20446;-63
2022/07/24 02:28:37;;;;;;;13.52;8.77;;;17.60;99.90;;;;;;5070834;28;20726;-64
2022/07/24 02:31:04;;;;;;;16.60;8.88;;;17.60;99.90;;;;;;5063170;28;20033;-64
2022/07/24 02:33:31;;;;;;;15.27;9.73;;;17.60;99.90;;;;;;5065489;28;20041;-64
2022/07/24 02:35:58;;;;;;;12.15;8.82;;;17.60;99.90;;;;;;5074386;28;20044;-64
2022/07/24 02:38:25;;;;;;;16.98;9.48;;;17.70;99.90;;;;;;5074273;28;20040;-64
2022/07/24 02:40:51;;;;;;;15.82;9.35;;;17.70;99.90;;;;;;5062724;28;20496;-64
2022/07/24 02:43:18;;;;;;;11.15;8.55;;;17.70;99.90;;;;;;5067653;28;20095;-64
2022/07/24 02:45:45;;;;;;;15.55;9.40;;;17.70;99.90;;;;;;5074245;28;20056;-64
2022/07/24 02:48:18;;;;;;;12.20;8.90;;;17.80;99.90;;;;;;5064458;28;20050;-64
2022/07/24 02:50:46;;;;;;;12.52;8.77;;;17.90;99.90;;;;;;5065166;28;20408;-64
2022/07/24 02:53:13;;;;;;;14.00;8.98;;;17.90;99.90;;;;;;5073712;28;20052;-64
2022/07/24 02:55:40;;;;;;;14.55;9.07;;;17.90;99.90;;;;;;5065773;28;20394;-64
2022/07/24 02:58:08;;;;;;;14.80;9.52;;;17.90;99.90;;;;;;5084530;22;20475;-60
2022/07/24 03:01:07;;;;;;;12.45;8.52;;;17.90;99.90;;;;;;5073948;28;20105;-60
2022/07/24 03:03:34;;;;;;;16.63;9.13;;;17.90;99.90;;;;;;5094209;28;20039;-60
2022/07/24 03:06:01;;;;;;;11.10;8.20;;;17.90;99.90;;;;;;5094284;28;20098;-61
2022/07/24 03:08:28;;;;;;;13.82;9.35;;;17.90;99.90;;;;;;5085203;28;20492;-60
2022/07/24 03:10:54;;;;;;;12.52;9.05;;;17.80;99.90;;;;;;5093356;28;20089;-60
2022/07/24 03:13:21;;;;;;;12.68;9.25;;;17.80;99.90;;;;;;5094077;28;20040;-61
2022/07/24 03:15:48;;;;;;;15.60;8.82;;;17.80;99.90;;;;;;5091458;28;20044;-60
2022/07/24 03:18:15;;;;;;;15.27;9.23;;;17.80;99.90;;;;;;5075642;28;20051;-60
2022/07/24 03:20:48;;;;;;;13.77;9.25;;;17.80;99.90;;;;;;5093620;28;20109;-61
2022/07/24 03:23:15;;;;;;;13.52;9.25;;;17.80;99.90;;;;;;5093883;28;20044;-60
2022/07/24 03:25:42;;;;;;;12.43;8.85;;;17.80;99.90;;;;;;5086528;28;20515;-60
2022/07/24 03:28:08;;;;;;;14.90;10.02;;;17.80;99.90;;;;;;5093712;28;20048;-60
2022/07/24 03:30:36;;;;;;;11.82;8.43;;;17.70;99.90;;;;;;5093279;28;20044;-60
2022/07/24 03:33:02;;;;;;;;;;;17.70;99.90;;;;;;5088496;28;20488;-60
2022/07/24 03:35:29;;;;;;;11.10;8.50;;;17.70;99.90;;;;;;5090329;28;19942;-60
2022/07/24 03:37:57;;;;;;;13.95;9.43;;;17.70;99.90;;;;;;5104164;28;20047;-60
2022/07/24 03:40:24;;;;;;;15.05;8.98;;;17.70;99.90;;;;;;5113556;28;20055;-61
2022/07/24 03:42:51;;;;;;;13.63;9.35;;;17.80;99.90;;;;;;5093378;28;20048;-60
2022/07/24 03:45:17;;;;;;;15.57;9.40;;;17.80;99.90;;;;;;5093051;28;20116;-60
2022/07/24 03:47:44;;;;;;;15.50;9.18;;;17.90;99.90;;;;;;5093436;28;20127;-60
2022/07/24 03:50:11;;;;;;;15.98;9.80;;;17.90;99.90;;;;;;5087089;28;20055;-61
2022/07/24 03:52:42;;;;;;;16.77;9.65;;;17.90;99.90;;;;;;5093201;28;20047;-60
2022/07/24 03:55:09;;;;;;;;;;;17.90;99.90;;;;;;5093739;28;20048;-61
2022/07/24 03:57:37;;;;;;;16.30;9.52;;;17.80;99.90;;;;;;5090594;28;19924;-61
2022/07/24 04:00:05;;;;;;;13.95;9.45;;;17.70;99.90;;;;;;5092229;28;20093;-61
2022/07/24 04:02:38;;;;;;;13.35;8.63;;;17.70;99.90;;;;;;5093359;28;20128;-60
2022/07/24 04:05:08;;;;;;;14.35;9.52;;;17.50;99.90;;;;;;5092594;28;20052;-60
2022/07/24 04:07:36;;;;;;;12.38;8.90;;;17.50;99.90;;;;;;5088642;28;20055;-60
2022/07/24 04:10:05;;;;;;;12.45;9.45;;;17.50;99.90;;;;;;5092603;28;20047;-60
2022/07/24 04:12:32;;;;;;;12.25;8.88;;;17.50;99.90;;;;;;5092391;28;20492;-60
2022/07/24 04:14:59;;;;;;;13.82;9.57;;;17.60;99.90;;;;;;5092627;28;21246;-60
2022/07/24 04:17:26;;;;;;;16.15;10.45;;;17.60;99.90;;;;;;5092911;28;20047;-60
2022/07/24 04:19:52;;;;;;;13.82;10.20;;;17.70;99.90;;;;;;5092457;28;20443;-60
2022/07/24 04:22:19;;;;;;;17.42;10.43;;;17.70;99.90;;;;;;5092056;28;20077;-60
2022/07/24 04:24:47;;;;;;;13.32;10.02;;;17.80;99.90;;;;;;5090193;28;20056;-60
2022/07/24 04:27:14;;;;;;;16.85;10.45;;;17.80;99.90;;;;;;5092486;28;20035;-60
2022/07/24 04:29:40;;;;;;;14.27;9.77;;;17.90;99.90;;;;;;5092493;28;20048;-60
2022/07/24 04:32:07;;;;;;;16.55;10.25;;;17.90;99.90;;;;;;5088231;28;20059;-60
2022/07/24 04:34:34;;;;;;;13.25;9.52;;;18.00;99.90;;;;;;5088144;28;20064;-60
2022/07/24 04:37:01;;;;;;;13.75;9.10;;;18.00;99.90;;;;;;5092566;28;20032;-60
2022/07/24 04:39:28;;;;;;;12.40;9.35;;;18.10;99.90;;;;;;5092313;28;20101;-60
2022/07/24 04:41:54;;;;;;;12.48;8.68;;;18.00;99.90;;;;;;5087106;28;20051;-60
2022/07/24 04:44:21;;;;;;;15.82;9.27;;;18.00;99.90;;;;;;5092300;28;20048;-60
2022/07/24 04:46:48;;;;;;;13.30;9.32;;;18.00;99.90;;;;;;5092303;28;20055;-60
2022/07/24 04:49:14;;;;;;;13.90;9.32;;;18.00;99.90;;;;;;5092263;28;20048;-60
2022/07/24 04:51:41;;;;;;;11.93;8.60;;;18.10;99.90;;;;;;5084620;28;20086;-60
2022/07/24 04:54:08;;;;;;;17.40;9.68;;;18.10;99.90;;;;;;5091375;28;20404;-61
2022/07/24 04:56:35;;;;;;;15.73;9.57;;;18.10;99.90;;;;;;5091812;28;20044;-61
2022/07/24 04:59:02;;;;;;;14.65;9.60;;;18.20;99.90;;;;;;5082688;28;20043;-61
2022/07/24 05:01:29;;;;;;;15.93;8.95;;;18.30;99.90;;;;;;5091130;28;20127;-61
2022/07/24 05:03:58;;;;;;;14.98;10.07;;;18.40;99.90;;;;;;5092430;28;20143;-60
2022/07/24 05:06:25;;;;;;;15.02;10.68;;;18.40;99.90;;;;;;5091930;28;20131;-61
2022/07/24 05:08:52;;;;;;;14.18;10.35;;;18.30;99.90;;;;;;5090249;28;20052;-60
2022/07/24 05:11:18;;;;;;;16.33;10.43;;;18.40;99.90;;;;;;5091460;28;20040;-61
2022/07/24 05:13:45;;;;;;;19.55;10.95;;;18.50;99.90;;;;;;5090740;28;20044;-60
2022/07/24 05:16:12;;;;;;;13.82;10.07;;;18.50;99.90;;;;;;5091590;28;20036;-61
2022/07/24 05:18:39;;;;;;;15.98;10.60;;;18.50;99.90;;;;;;5087876;28;20461;-61
2022/07/24 05:21:07;;;;;;;14.50;9.55;;;18.50;99.90;;;;;;5071368;28;20056;-61
2022/07/24 05:23:33;;;;;;;15.43;10.38;;;18.70;99.90;;;;;;5071428;28;20059;-61
2022/07/24 05:26:00;;;;;;;16.08;9.50;;;18.70;99.90;;;;;;5083208;28;20044;-61
2022/07/24 05:28:27;;;;;;;14.45;9.80;;;18.80;99.90;;;;;;5091417;28;20055;-61
2022/07/24 05:30:54;;;;;;;17.35;10.13;;;19.00;99.90;;;;;;5091188;28;20044;-60
2022/07/24 05:33:21;;;;;;;14.55;9.88;;;19.10;99.90;;;;;;5087011;28;20028;-60
2022/07/24 05:35:47;;;;;;;16.48;9.32;;;19.20;99.90;;;;;;5088957;28;20105;-60
2022/07/24 05:38:15;;;;;;;14.00;9.25;;;19.30;99.90;;;;;;5091662;28;20450;-61
2022/07/24 05:40:42;;;;;;;;;;;19.40;99.90;;;;;;5091476;28;20497;-61
2022/07/24 05:43:08;;;;;;;18.85;9.98;;;19.50;99.90;;;;;;5089370;28;19943;-60
2022/07/24 05:45:35;;;;;;;13.55;9.80;;;19.40;99.90;;;;;;5091473;28;20036;-61
2022/07/24 05:48:02;;;;;;;13.18;9.63;;;19.50;99.90;;;;;;5091405;28;20062;-61
2022/07/24 05:50:29;;;;;;;14.95;9.07;;;19.60;99.90;;;;;;5086374;28;20102;-61
2022/07/24 05:52:55;;;;;;;12.90;9.48;;;19.80;99.90;;;;;;5090103;28;20055;-61
2022/07/24 05:55:22;;;;;;;13.93;8.93;;;19.90;99.90;;;;;;5091506;28;20377;-61
2022/07/24 05:57:49;;;;;;;13.63;9.23;;;20.00;99.90;;;;;;5091368;28;20052;-61
2022/07/24 06:00:18;;;;;;;12.52;8.77;;;20.00;99.90;;;;;;5090471;28;20097;-61
2022/07/24 06:02:49;;;;;;;12.20;8.63;;;20.10;99.90;;;;;;5091068;28;20128;-60
2022/07/24 06:05:16;;;;;;;12.88;8.60;;;20.20;99.90;;;;;;5091316;28;20098;-61
2022/07/24 06:07:44;;;;;;;15.70;9.70;;;20.30;99.90;;;;;;5095375;28;20055;-61
2022/07/24 06:10:12;;;;;;;12.52;9.45;;;20.10;99.90;;;;;;5091384;28;20578;-60
2022/07/24 06:12:41;;;;;;;14.75;9.88;;;20.10;99.90;;;;;;5095475;28;20044;-61
2022/07/24 06:15:09;;;;;;;14.23;9.82;;;20.00;99.90;;;;;;5095071;28;20081;-61
2022/07/24 06:17:36;;;;;;;15.05;9.52;;;19.80;99.90;;;;;;5090033;28;20037;-61
2022/07/24 06:20:04;;;;;;;17.13;9.82;;;19.90;99.90;;;;;;5094319;28;20032;-60
2022/07/24 06:22:31;;;;;;;17.00;9.57;;;19.90;99.90;;;;;;5095123;28;20060;-60
2022/07/24 06:24:58;;;;;;;16.98;9.52;;;19.90;99.90;;;;;;5094595;28;20048;-61
2022/07/24 06:27:24;;;;;;;12.82;9.07;;;19.90;99.90;;;;;;5094658;28;20055;-61
2022/07/24 06:29:51;;;;;;;14.80;10.38;;;20.00;99.90;;;;;;5094637;28;20470;-61
2022/07/24 06:32:18;;;;;;;16.27;10.60;;;19.90;99.90;;;;;;5094410;28;20102;-61
2022/07/24 06:34:45;;;;;;;14.65;10.10;;;20.10;99.90;;;;;;5090607;28;20047;-60
2022/07/24 06:37:11;;;;;;;14.85;10.32;;;20.20;99.90;;;;;;5094492;28;20036;-60
2022/07/24 06:39:38;;;;;;;13.90;9.70;;;20.20;99.90;;;;;;5094373;28;20520;-61
2022/07/24 06:42:05;;;;;;;15.80;9.20;;;20.40;99.90;;;;;;5094214;28;20055;-61
2022/07/24 06:44:36;;;;;;;13.75;9.70;;;20.50;99.90;;;;;;5075967;28;20066;-60
2022/07/24 06:47:03;;;;;;;15.25;9.82;;;20.50;99.90;;;;;;5094145;28;20076;-60
2022/07/24 06:49:30;;;;;;;20.08;9.57;;;20.70;99.90;;;;;;5093971;28;20044;-60
2022/07/24 06:51:56;;;;;;;14.90;9.50;;;20.70;99.90;;;;;;5094053;28;20051;-60
2022/07/24 06:54:23;;;;;;;17.55;10.50;;;21.00;99.90;;;;;;5086288;28;20039;-60
2022/07/24 06:56:50;;;;;;;13.95;10.35;;;21.10;99.90;;;;;;5094313;28;20048;-60
2022/07/24 06:59:18;;;;;;;16.70;10.77;;;21.00;99.90;;;;;;5093861;28;20044;-60
2022/07/24 07:01:45;;;;;;;12.88;9.63;;;21.10;99.90;;;;;;5092840;28;20040;-60
2022/07/24 07:04:12;;;;;;;13.68;9.25;;;21.20;99.90;;;;;;5075087;28;20476;-60
2022/07/24 07:06:39;;;;;;;12.43;9.13;;;21.40;99.90;;;;;;5074024;28;20102;-61
2022/07/24 07:09:10;;;;;;;13.80;9.77;;;21.60;99.90;;;;;;5073824;28;20564;-60
2022/07/24 07:11:37;;;;;;;14.07;8.93;;;21.70;99.90;;;;;;5081560;28;20047;-60
2022/07/24 07:14:04;;;;;;;14.40;9.68;;;21.70;99.90;;;;;;5093917;28;20458;-60
2022/07/24 07:16:30;;;;;;;14.85;9.07;;;21.80;99.90;;;;;;5093938;28;20040;-60
2022/07/24 07:18:57;;;;;;;13.13;9.57;;;21.90;99.90;;;;;;5089109;28;20044;-60
2022/07/24 07:21:24;;;;;;;12.25;9.40;;;22.10;99.90;;;;;;5085439;28;20044;-60
2022/07/24 07:23:52;;;;;;;14.30;9.43;;;22.20;99.90;;;;;;5086602;28;20051;-61
2022/07/24 07:26:19;;;;;;;18.40;9.38;;;22.30;99.90;;;;;;5081988;28;20048;-61
2022/07/24 07:28:46;;;;;;;11.23;8.45;;;22.40;99.90;;;;;;5083232;28;20047;-61
2022/07/24 07:31:13;;;;;;;15.90;8.88;;;22.50;99.90;;;;;;5074096;28;20094;-61
2022/07/24 07:33:40;;;;;;;14.98;9.30;;;22.60;99.90;;;;;;5084556;28;20134;-61
2022/07/24 07:36:08;;;;;;;16.92;8.73;;;22.60;99.90;;;;;;5082766;28;20422;-61
2022/07/24 07:38:37;;;;;;;12.05;9.02;;;22.60;99.90;;;;;;5083187;28;20032;-61
2022/07/24 07:41:05;;;;;;;13.85;9.13;;;22.60;99.90;;;;;;5074417;28;20051;-61
2022/07/24 07:43:31;;;;;;;14.70;9.73;;;22.70;99.90;;;;;;5081994;28;20032;-61
2022/07/24 07:45:58;;;;;;;11.50;9.10;;;22.90;99.90;;;;;;5083621;28;20055;-61
2022/07/24 07:48:25;;;;;;;13.15;9.57;;;23.00;99.90;;;;;;5083431;28;20111;-61
2022/07/24 07:50:52;;;;;;;11.48;9.00;;;23.10;99.90;;;;;;5083291;28;20044;-61
2022/07/24 07:53:18;;;;;;;11.68;8.80;;;23.10;99.90;;;;;;5083626;28;20036;-61
2022/07/24 07:55:48;;;;;;;11.70;9.10;;;23.30;99.90;;;;;;5086366;28;20052;-61
2022/07/24 07:58:15;;;;;;;18.60;9.68;;;23.30;99.90;;;;;;5087509;28;20044;-61
2022/07/24 08:00:41;;;;;;;14.43;8.85;;;23.40;99.90;;;;;;5092193;28;20048;-61
2022/07/24 08:03:08;;;;;;;13.75;9.10;;;23.50;99.90;;;;;;5090522;28;20047;-61
2022/07/24 08:05:35;;;;;;;13.15;9.23;;;23.50;99.90;;;;;;5092234;28;20036;-61
2022/07/24 08:08:02;;;;;;;14.80;8.98;;;23.50;99.90;;;;;;5092181;28;20058;-61
2022/07/24 08:10:30;;;;;;;14.27;9.20;;;23.80;99.90;;;;;;5092155;28;20046;-61
2022/07/24 08:12:57;;;;;;;14.48;9.13;;;23.90;99.90;;;;;;5090318;28;20082;-61
2022/07/24 08:15:23;;;;;;;12.45;9.30;;;24.00;99.90;;;;;;5092156;28;20438;-61
2022/07/24 08:17:54;;;;;;;12.10;8.38;;;23.90;99.90;;;;;;5091980;28;20036;-61
2022/07/24 08:20:23;;;;;;;10.70;8.77;;;24.00;99.90;;;;;;5087993;28;20447;-61
2022/07/24 08:22:50;;;;;;;10.07;8.63;;;24.10;99.90;;;;;;5092102;28;20059;-61
2022/07/24 08:25:17;;;;;;;13.82;9.13;;;24.20;99.90;;;;;;5091927;28;20047;-60
2022/07/24 08:27:46;;;;;;;11.32;8.65;;;24.20;99.90;;;;;;5091143;28;20082;-60
2022/07/24 08:30:13;;;;;;;14.55;9.55;;;24.30;99.90;;;;;;5089853;28;20036;-60
2022/07/24 08:32:40;;;;;;;11.82;9.00;;;24.40;99.90;;;;;;5088962;28;20067;-60
2022/07/24 08:35:07;;;;;;;15.05;9.60;;;24.40;99.90;;;;;;5091844;28;20036;-60
2022/07/24 08:37:40;;;;;;;10.88;8.70;;;24.40;99.90;;;;;;5088987;28;20062;-60
2022/07/24 08:40:09;;;;;;;12.13;8.45;;;24.50;99.90;;;;;;5089671;28;20035;-60
2022/07/24 08:42:36;;;;;;;12.73;8.38;;;24.60;99.90;;;;;;5092061;28;20459;-60
2022/07/24 08:45:07;;;;;;;13.00;8.82;;;24.90;99.90;;;;;;5088653;28;20052;-61
2022/07/24 08:47:34;;;;;;;16.58;9.05;;;25.00;99.90;;;;;;5091206;28;20047;-60
2022/07/24 08:50:04;;;;;;;10.77;8.60;;;25.20;99.90;;;;;;5091363;28;20512;-60
2022/07/24 08:52:33;;;;;;;8.80;7.88;;;25.10;99.90;;;;;;5091439;28;20408;-60
2022/07/24 08:55:00;;;;;;;12.18;8.38;;;25.20;99.90;;;;;;5085665;28;20048;-60
2022/07/24 08:57:26;;;;;;;8.93;7.57;;;25.50;99.90;;;;;;5091395;28;20489;-60
2022/07/24 08:59:53;;;;;;;15.48;8.25;;;25.60;99.90;;;;;;5080032;22;20513;-65
2022/07/24 09:02:20;;;;;;;13.48;8.05;;;25.90;99.90;;;;;;5083991;28;20040;-65
2022/07/24 09:04:49;;;;;;;11.45;8.45;;;26.10;99.90;;;;;;5081877;28;20049;-64
2022/07/24 09:07:19;;;;;;;10.68;8.00;;;26.10;99.90;;;;;;5071466;28;20493;-65
2022/07/24 09:10:10;;;;;;;9.07;7.70;;;26.20;99.90;;;;;;5079359;28;20420;-65
2022/07/24 09:12:40;;;;;;;12.55;7.95;;;26.20;99.90;;;;;;5071205;28;20424;-65
2022/07/24 09:15:16;;;;;;;11.52;8.82;;;26.30;99.90;;;;;;5071124;28;20048;-65
2022/07/24 09:17:54;;;;;;;9.75;7.30;;;26.30;99.90;;;;;;5062080;28;20044;-65
2022/07/24 09:20:22;;;;;;;12.52;8.10;;;26.40;99.90;;;;;;5070701;28;20032;-65
2022/07/24 09:22:50;;;;;;;12.00;7.75;;;26.60;99.90;;;;;;5054688;28;20040;-62
2022/07/24 09:25:22;;;;;;;9.63;7.70;;;26.50;99.90;;;;;;5041793;28;20055;-62
2022/07/24 09:27:52;;;;;;;12.82;7.88;;;26.60;99.90;;;;;;5043565;28;20048;-64
2022/07/24 09:30:32;;;;;;;9.18;7.45;;;26.60;99.90;;;;;;5039254;28;20102;-63
2022/07/24 09:33:05;;;;;;;10.90;7.93;;;26.60;99.90;;;;;;5041878;28;20056;-64
2022/07/24 09:35:44;;;;;;;8.95;7.97;;;26.70;99.90;;;;;;5039229;28;20049;-64
2022/07/24 09:38:14;;;;;;;11.32;8.30;;;26.90;99.90;;;;;;5048078;28;20041;-64
2022/07/24 09:40:46;;;;;;;11.00;7.93;;;26.90;99.90;;;;;;5040559;28;20464;-64
2022/07/24 09:43:22;;;;;;;9.65;8.13;;;27.00;99.90;;;;;;5048536;28;20045;-64
2022/07/24 09:46:02;;;;;;;8.68;7.78;;;27.00;99.90;;;;;;5070955;28;20119;-64
2022/07/24 09:48:32;;;;;;;9.50;8.05;;;27.00;99.90;;;;;;5071524;28;20484;-64
2022/07/24 09:51:03;;;;;;;10.98;7.75;;;26.90;99.90;;;;;;5065956;28;20063;-64
2022/07/24 09:53:33;;;;;;;13.65;8.50;;;26.90;99.90;;;;;;5066055;28;20504;-64
2022/07/24 09:56:08;;;;;;;10.77;8.02;;;26.80;99.90;;;;;;5030767;28;20052;-64
2022/07/24 09:58:38;;;;;;;10.93;8.13;;;26.90;99.90;;;;;;5034325;28;20083;-64
2022/07/24 10:01:06;;;;;;;11.57;8.40;;;27.00;99.90;;;;;;5041691;28;20118;-64
2022/07/24 10:03:38;;;;;;;12.90;8.30;;;27.10;99.90;;;;;;5039515;28;20037;-64
2022/07/24 10:06:08;;;;;;;11.90;8.10;;;27.30;99.90;;;;;;5041025;28;20390;-63
2022/07/24 10:08:36;;;;;;;10.70;8.85;;;27.30;99.90;;;;;;5056030;28;20037;-64
2022/07/24 10:11:04;;;;;;;10.73;8.82;;;27.40;99.90;;;;;;5052258;28;20036;-63
2022/07/24 10:13:31;;;;;;;14.18;8.43;;;27.50;99.90;;;;;;5070835;28;20492;-63
2022/07/24 10:16:15;;;;;;;9.73;8.30;;;27.50;99.90;;;;;;5051499;28;20040;-64
2022/07/24 10:18:52;;;;;;;11.55;8.60;;;27.60;99.90;;;;;;5032989;28;20073;-64
2022/07/24 10:21:34;;;;;;;12.93;9.30;;;27.80;99.90;;;;;;5038097;28;20048;-64
2022/07/24 10:24:03;;;;;;;11.60;9.20;;;27.70;99.90;;;;;;5039129;28;20043;-64
2022/07/24 10:26:40;;;;;;;11.27;9.07;;;27.60;99.90;;;;;;5070306;28;20044;-64
2022/07/24 10:29:22;;;;;;;10.40;8.55;;;27.70;99.90;;;;;;5070670;28;20048;-64
2022/07/24 10:31:54;;;;;;;11.38;8.73;;;27.90;99.90;;;;;;5049613;28;20056;-64
2022/07/24 10:34:58;;;;;;;10.00;9.00;;;28.10;99.90;;;;;;5048463;28;20048;-64
2022/07/24 10:37:33;;;;;;;11.32;8.68;;;28.30;99.90;;;;;;5046480;28;20116;-64
2022/07/24 10:40:14;;;;;;;14.30;9.43;;;28.40;99.90;;;;;;5052712;28;20452;-64
2022/07/24 10:43:09;;;;;;;11.07;8.93;;;28.30;99.90;;;;;;5070522;28;20049;-64
2022/07/24 10:45:43;;;;;;;16.83;9.30;;;28.50;99.90;;;;;;5070501;28;20056;-64
2022/07/24 10:48:23;;;;;;;12.07;9.15;;;28.70;99.90;;;;;;5068366;28;20401;-64
2022/07/24 10:51:07;;;;;;;10.15;8.43;;;28.70;99.90;;;;;;5070358;28;20480;-64
2022/07/24 10:53:37;;;;;;;13.93;8.82;;;28.90;99.90;;;;;;5072333;28;20098;-64
2022/07/24 10:56:26;;;;;;;12.45;8.57;;;29.00;99.90;;;;;;5074319;28;20049;-64
2022/07/24 10:59:11;;;;;;;11.07;8.85;;;29.00;99.90;;;;;;5067530;28;20040;-64
2022/07/24 11:01:47;;;;;;;9.68;8.65;;;28.90;99.90;;;;;;5073927;28;20060;-64
2022/07/24 11:04:20;;;;;;;11.82;9.45;;;28.90;99.90;;;;;;5074142;28;20044;-64
2022/07/24 11:06:48;;;;;;;10.80;8.45;;;28.80;99.90;;;;;;5068771;28;20080;-64
2022/07/24 11:09:17;;;;;;;14.93;10.00;;;28.90;99.90;;;;;;5060940;28;20049;-63
2022/07/24 11:11:55;;;;;;;10.60;9.38;;;29.00;99.90;;;;;;5042820;28;20104;-64
2022/07/24 11:14:24;;;;;;;9.38;8.30;;;29.00;99.90;;;;;;5043944;28;20048;-64
2022/07/24 11:16:51;;;;;;;10.00;8.63;;;29.00;99.90;;;;;;5045853;28;20048;-64
2022/07/24 11:19:18;;;;;;;10.73;8.77;;;28.90;99.90;;;;;;5049373;28;20071;-64
2022/07/24 11:21:49;;;;;;;;;;;28.70;99.90;;;;;;5050363;28;20424;-64
2022/07/24 11:24:22;;;;;;;10.15;8.60;;;28.70;99.90;;;;;;5044048;28;19935;-64
2022/07/24 11:27:03;;;;;;;12.00;8.00;;;28.70;99.90;;;;;;5036266;28;20049;-64
2022/07/24 11:29:38;;;;;;;10.70;8.55;;;28.60;99.90;;;;;;5038149;28;20049;-64
2022/07/24 11:32:07;;;;;;;8.30;7.40;;;28.60;99.90;;;;;;5050512;28;20051;-65
2022/07/24 11:34:46;;;;;;;10.18;8.32;;;28.70;99.90;;;;;;5049790;28;20044;-64
2022/07/24 11:37:14;;;;;;;11.20;8.77;;;28.70;99.90;;;;;;5053548;28;20047;-64
2022/07/24 11:39:43;;;;;;;10.15;7.95;;;28.80;99.90;;;;;;5053286;28;20044;-65
2022/07/24 11:42:12;;;;;;;8.98;7.82;;;29.00;99.90;;;;;;5049842;28;20088;-65
2022/07/24 11:44:42;;;;;;;10.32;7.65;;;29.20;99.90;;;;;;5044389;28;20033;-65
2022/07/24 11:47:13;;;;;;;10.45;8.45;;;29.00;99.90;;;;;;5041928;28;20493;-65
2022/07/24 11:49:42;;;;;;;10.35;7.97;;;28.70;99.90;;;;;;5046475;28;20050;-64
2022/07/24 11:52:18;;;;;;;9.02;7.65;;;28.70;99.90;;;;;;5061637;28;20048;-65
2022/07/24 11:54:47;;;;;;;8.65;7.75;;;29.00;99.90;;;;;;5054674;28;20214;-65
2022/07/24 11:57:18;;;;;;;10.23;7.82;;;29.20;99.90;;;;;;5051858;28;20079;-64
2022/07/24 12:00:15;;;;;;;10.80;7.72;;;28.80;99.90;;;;;;5045715;28;20390;-64
2022/07/24 12:02:48;;;;;;;10.90;8.07;;;28.70;99.90;;;;;;5046330;28;20555;-65
2022/07/24 12:05:24;;;;;;;10.90;7.53;;;28.80;99.90;;;;;;5044524;28;20158;-65
2022/07/24 12:07:51;;;;;;;9.77;7.07;;;29.00;99.90;;;;;;5060641;28;20046;-65
2022/07/24 12:10:22;;;;;;;9.02;8.02;;;29.20;99.90;;;;;;5072214;28;20127;-65
2022/07/24 12:12:51;;;;;;;10.45;8.23;;;29.40;99.90;;;;;;5070831;28;20066;-65
2022/07/24 12:15:17;;;;;;;16.98;8.75;;;29.80;99.90;;;;;;5055133;28;20102;-65
2022/07/24 12:17:55;;;;;;;;;;;29.70;99.90;;;;;;5047871;28;20059;-65
2022/07/24 12:20:30;;;;;;;10.23;7.88;;;29.70;99.00;;;;;;5051700;28;19956;-65
2022/07/24 12:23:00;;;;;;;11.80;8.38;;;29.60;99.40;;;;;;5041290;28;20072;-65
2022/07/24 12:25:28;;;;;;;13.32;8.40;;;29.30;99.10;;;;;;5033975;28;20053;-65
2022/07/24 12:28:04;;;;;;;8.75;7.57;;;29.30;98.90;;;;;;5050343;28;20052;-64
2022/07/24 12:30:33;;;;;;;9.95;7.70;;;29.30;98.50;;;;;;5044617;28;20060;-65
2022/07/24 12:33:06;;;;;;;7.72;6.97;;;29.40;99.00;;;;;;5042987;28;20036;-65
2022/07/24 12:35:52;;;;;;;12.68;7.47;;;29.50;98.60;;;;;;5047533;28;20123;-65
2022/07/24 12:38:29;;;;;;;8.80;7.25;;;29.70;97.70;;;;;;5043693;28;20037;-64
2022/07/24 12:41:13;;;;;;;9.48;7.57;;;29.90;97.10;;;;;;5040856;28;20239;-64
2022/07/24 12:43:56;;;;;;;13.63;8.50;;;30.00;97.80;;;;;;5042233;28;20405;-65
2022/07/24 12:46:31;;;;;;;12.10;8.00;;;30.00;97.60;;;;;;5045782;28;20042;-65
2022/07/24 12:49:15;;;;;;;8.57;7.55;;;30.00;96.00;;;;;;5043049;28;20040;-65